CheckWX is a tool to help pilots better visualize weather data.  It is not intended as a substitute for an official pre-flight weather briefing.

16:18:36 UTC

EGLF TAF
Farnborough Airport
Farnborough, United Kingdom
TAF EGLF 071400Z 0715/0720 21012KT 9999 SCT035 TEMPO 0719/0720 BKN014

Dec-7@
15:00 UTC

Dec-7 @ 15:00 UTC

Dec-7@
20:00 UTC

Dec-7 @ 20:00 UTC

TAF EGLF 071400Z 0715/0720 21012KT 9999 SCT035
Wind
  • 210° at 12 KTS
Cloud Levels
  • Scattered at 3,500' AGL

Dec-7@
19:00 UTC

Dec-7 @ 19:00 UTC

Dec-7@
20:00 UTC

Dec-7 @ 20:00 UTC

TEMPO 0719/0720 BKN014

Temporary

Temporary Changes expected for less than half the time period

Cloud Levels
  • Broken at 1,400' AGL